Time;durP1;ratioP1;P1;durP2;ratioP2;P2;SDS_P1;SDS_P2;PMS_P1;PMS_P2;Temp;Humidity;BMP_temperature;BMP_pressure;BME280_temperature;BME280_humidity;BME280_pressure;Samples;Min_cycle;Max_cycle;Signal;HPM_P1;HPM_P2
2022/11/27 18:54:36;;;;;;;61.00;41.20;;;;;;;4.18;78.65;101488.02;100298;1349;545245;-75
2022/11/27 18:57:05;;;;;;;53.10;38.00;;;;;;;4.22;78.43;101493.56;105739;1319;22279;-81
2022/11/27 18:59:33;;;;;;;58.10;39.80;;;;;;;4.18;78.14;101492.56;105553;1319;22070;-75
2022/11/27 19:02:02;;;;;;;59.30;42.70;;;;;;;4.17;78.37;101491.15;105523;1319;22084;-74
2022/11/27 19:04:29;;;;;;;67.20;42.80;;;;;;;4.20;78.41;101492.13;105673;1320;22404;-76
2022/11/27 19:06:56;;;;;;;59.60;41.50;;;;;;;4.30;78.91;101493.84;105594;1320;22110;-75
2022/11/27 19:09:23;;;;;;;62.10;42.60;;;;;;;4.44;78.91;101491.52;105853;1317;22144;-74
2022/11/27 19:11:51;;;;;;;60.60;42.50;;;;;;;4.54;78.64;101492.70;105838;1319;22062;-75
2022/11/27 19:14:19;;;;;;;64.20;42.60;;;;;;;4.58;78.39;101487.98;105194;1317;22282;-76
2022/11/27 19:16:46;;;;;;;62.50;40.50;;;;;;;4.65;78.43;101488.00;105186;1317;22268;-76
2022/11/27 19:19:18;;;;;;;60.40;43.90;;;;;;;4.75;78.28;101489.38;105398;1312;22147;-76
2022/11/27 19:22:05;;;;;;;60.80;42.30;;;;;;;4.83;78.14;101492.42;105345;1322;22206;-76
2022/11/27 19:24:32;;;;;;;63.50;42.50;;;;;;;4.93;78.20;101487.68;105355;1323;22910;-76
2022/11/27 19:26:59;;;;;;;62.30;42.70;;;;;;;4.98;77.77;101485.75;105453;1322;22430;-76
2022/11/27 19:29:26;;;;;;;61.50;44.70;;;;;;;4.99;77.70;101483.52;105164;1324;22284;-76
2022/11/27 19:31:56;;;;;;;66.90;45.30;;;;;;;5.01;77.51;101480.26;105052;1318;22166;-75
2022/11/27 19:34:24;;;;;;;63.70;43.70;;;;;;;5.03;77.37;101482.40;106915;1304;22079;-75
2022/11/27 19:36:51;;;;;;;59.30;40.70;;;;;;;5.03;77.19;101482.77;106807;1286;22812;-72
2022/11/27 19:39:18;;;;;;;56.50;41.50;;;;;;;5.05;77.23;101485.11;106869;1302;22155;-74
2022/11/27 19:41:47;;;;;;;58.80;41.60;;;;;;;5.10;77.26;101483.83;106784;1306;22159;-75
2022/11/27 19:44:16;;;;;;;58.10;42.70;;;;;;;5.14;77.26;101484.84;106889;1304;22043;-75
2022/11/27 19:46:45;;;;;;;65.30;42.90;;;;;;;5.15;76.93;101486.47;106805;1306;22045;-75
2022/11/27 19:49:26;;;;;;;58.80;41.40;;;;;;;5.09;76.74;101482.79;106779;1306;22757;-75
2022/11/27 19:51:53;;;;;;;64.20;45.40;;;;;;;5.02;76.63;101485.88;106825;1306;22085;-75
2022/11/27 19:54:21;;;;;;;59.00;43.90;;;;;;;5.00;76.95;101481.27;106695;1306;22106;-73
2022/11/27 19:56:50;;;;;;;59.60;42.10;;;;;;;5.02;76.88;101482.04;106436;1311;22245;-74
2022/11/27 19:59:17;;;;;;;57.30;40.70;;;;;;;4.98;76.75;101480.52;106433;1311;22270;-73
2022/11/27 20:01:54;;;;;;;59.70;40.50;;;;;;;5.02;77.00;101481.34;106264;1312;22250;-77
2022/11/27 20:04:25;;;;;;;58.10;41.60;;;;;;;5.02;76.64;101481.68;106252;1310;22112;-75
2022/11/27 20:06:52;;;;;;;58.70;41.60;;;;;;;5.05;76.98;101480.03;106371;1311;22151;-73
2022/11/27 20:09:19;;;;;;;63.20;40.50;;;;;;;5.13;77.14;101479.92;106180;1311;22853;-74
2022/11/27 20:11:46;;;;;;;57.70;41.90;;;;;;;5.20;77.03;101479.45;106377;1311;22618;-74
2022/11/27 20:14:16;;;;;;;64.50;43.70;;;;;;;5.27;76.93;101475.45;106601;1305;22801;-75
2022/11/27 20:16:43;;;;;;;54.80;39.30;;;;;;;5.30;76.75;101478.16;106840;1305;22048;-76
2022/11/27 20:19:10;;;;;;;56.20;40.70;;;;;;;5.33;76.70;101477.73;106795;1306;22095;-75
2022/11/27 20:21:38;;;;;;;58.70;41.80;;;;;;;5.36;76.53;101472.75;106724;1305;22802;-75
2022/11/27 20:24:05;;;;;;;59.50;40.00;;;;;;;5.38;76.44;101470.90;106785;1305;22167;-73
2022/11/27 20:26:33;;;;;;;51.90;39.00;;;;;;;5.40;76.20;101475.13;106849;1305;22090;-77
2022/11/27 20:29:08;;;;;;;56.70;41.00;;;;;;;5.31;75.86;101477.14;106717;1305;22065;-74
2022/11/27 20:31:39;;;;;;;57.10;40.60;;;;;;;5.28;76.32;101478.45;106655;1306;22045;-74
2022/11/27 20:34:13;;;;;;;55.40;40.00;;;;;;;5.29;76.34;101477.61;106742;1305;22070;-74
2022/11/27 20:36:40;;;;;;;66.10;44.30;;;;;;;5.25;76.06;101476.61;106818;1306;22086;-74
2022/11/27 20:39:09;;;;;;;54.20;40.40;;;;;;;5.14;75.82;101480.48;106869;1305;22086;-73
2022/11/27 20:41:40;;;;;;;56.20;40.60;;;;;;;5.06;76.20;101477.45;106844;1306;22864;-74
2022/11/27 20:44:08;;;;;;;54.80;39.80;;;;;;;5.09;76.63;101477.71;106811;1306;22118;-74
2022/11/27 20:46:35;;;;;;;55.80;39.00;;;;;;;5.12;76.63;101476.41;106732;1305;22090;-75
2022/11/27 20:49:03;;;;;;;57.50;42.10;;;;;;;5.15;76.63;101474.23;106857;1301;22136;-75
2022/11/27 20:51:32;;;;;;;59.30;43.50;;;;;;;5.11;76.19;101473.40;106895;1305;22158;-74
2022/11/27 20:54:06;;;;;;;61.60;41.70;;;;;;;5.10;76.45;101475.84;106867;1306;22180;-74
2022/11/27 20:56:34;;;;;;;59.30;42.00;;;;;;;5.03;76.24;101474.40;106888;1298;22083;-76
2022/11/27 20:59:03;;;;;;;60.30;43.10;;;;;;;4.94;76.38;101476.38;106720;1306;22800;-77
2022/11/27 21:01:32;;;;;;;58.30;40.00;;;;;;;4.94;76.48;101475.33;106796;1306;22058;-77
2022/11/27 21:04:03;;;;;;;61.70;42.80;;;;;;;4.89;76.57;101473.77;106858;1306;22827;-77
2022/11/27 21:06:31;;;;;;;62.10;42.80;;;;;;;4.95;77.15;101469.96;106867;1306;22748;-77
2022/11/27 21:09:00;;;;;;;55.70;40.90;;;;;;;5.05;77.34;101470.25;106718;1306;22109;-76
2022/11/27 21:11:30;;;;;;;59.30;42.60;;;;;;;5.07;76.90;101471.55;106831;1306;22110;-77
2022/11/27 21:14:00;;;;;;;59.20;44.20;;;;;;;5.00;76.46;101471.85;106895;1306;22116;-77
2022/11/27 21:16:30;;;;;;;56.10;41.70;;;;;;;4.90;76.67;101467.52;106829;1302;22161;-77
2022/11/27 21:19:01;;;;;;;58.80;42.00;;;;;;;4.83;76.67;101469.39;106726;1306;22089;-76
2022/11/27 21:21:28;;;;;;;59.50;42.10;;;;;;;4.80;77.18;101470.36;106877;1305;22056;-77
2022/11/27 21:23:57;;;;;;;60.20;41.80;;;;;;;4.85;77.17;101467.52;106804;1306;22053;-77
2022/11/27 21:26:24;;;;;;;56.60;41.00;;;;;;;4.87;77.55;101467.96;106817;1306;22083;-76
2022/11/27 21:28:52;;;;;;;65.30;42.20;;;;;;;4.95;77.46;101468.05;106723;1305;22064;-76
2022/11/27 21:31:21;;;;;;;66.20;42.80;;;;;;;5.01;77.62;101466.81;106586;1309;22106;-78
2022/11/27 21:33:58;;;;;;;58.60;43.90;;;;;;;5.04;77.42;101465.50;106597;1309;22099;-77
2022/11/27 21:36:27;;;;;;;63.20;42.60;;;;;;;4.97;76.91;101468.26;106498;1310;22184;-77
2022/11/27 21:38:56;;;;;;;56.40;43.10;;;;;;;4.90;77.13;101464.20;106594;1301;22476;-76
2022/11/27 21:41:25;;;;;;;63.20;42.00;;;;;;;4.96;77.62;101467.20;106607;1310;22127;-76
2022/11/27 21:43:55;;;;;;;59.50;41.30;;;;;;;5.05;77.73;101467.81;106628;1310;22186;-77
2022/11/27 21:46:24;;;;;;;54.60;41.60;;;;;;;5.09;77.44;101467.23;106538;1309;22121;-75
2022/11/27 21:48:53;;;;;;;55.60;40.50;;;;;;;5.08;77.01;101467.39;106630;1306;22106;-83
2022/11/27 21:51:21;;;;;;;55.00;40.70;;;;;;;5.08;77.23;101468.41;106893;1304;22097;-76
2022/11/27 21:53:51;;;;;;;61.70;42.40;;;;;;;5.14;77.29;101460.22;106813;1291;22101;-77
2022/11/27 21:56:19;;;;;;;57.00;41.90;;;;;;;5.15;77.10;101462.89;106816;1306;22063;-73
2022/11/27 21:58:47;;;;;;;51.40;39.20;;;;;;;5.19;77.08;101459.32;106710;1300;22083;-74
2022/11/27 22:01:18;;;;;;;58.50;40.40;;;;;;;5.22;77.05;101458.88;106732;1305;22056;-72
2022/11/27 22:03:50;;;;;;;57.90;41.30;;;;;;;5.27;77.10;101460.27;106902;1306;22110;-73
2022/11/27 22:06:17;;;;;;;57.70;39.80;;;;;;;5.35;77.12;101461.89;106854;1306;22132;-74
2022/11/27 22:08:48;;;;;;;54.80;41.20;;;;;;;5.41;77.07;101458.92;106850;1306;22137;-74
2022/11/27 22:11:21;;;;;;;57.10;41.10;;;;;;;5.44;77.01;101456.92;106910;1305;22107;-74
2022/11/27 22:13:48;;;;;;;56.80;42.00;;;;;;;5.48;76.75;101453.87;106840;1306;22056;-73
2022/11/27 22:16:21;;;;;;;73.40;44.00;;;;;;;5.48;76.67;101459.48;106892;1300;22083;-74
2022/11/27 22:18:49;;;;;;;63.50;47.60;;;;;;;5.45;76.41;101455.20;106740;1304;22904;-73
2022/11/27 22:21:16;;;;;;;72.40;48.40;;;;;;;5.43;76.47;101452.88;106830;1306;22912;-72
2022/11/27 22:23:44;;;;;;;64.20;48.00;;;;;;;5.43;76.44;101452.71;106860;1306;22748;-72
2022/11/27 22:26:14;;;;;;;67.00;47.40;;;;;;;5.44;76.34;101449.07;106477;1310;22120;-72
2022/11/27 22:28:41;;;;;;;62.10;45.60;;;;;;;5.45;76.27;101446.98;106496;1311;22768;-72
2022/11/27 22:31:13;;;;;;;61.80;47.30;;;;;;;5.49;76.40;101450.75;106563;1310;22295;-72
2022/11/27 22:33:41;;;;;;;63.40;45.60;;;;;;;5.52;76.36;101445.42;106583;1310;22174;-73
2022/11/27 22:36:25;;;;;;;61.30;47.70;;;;;;;5.53;76.27;101443.00;106282;1310;22877;-71
2022/11/27 22:38:53;;;;;;;69.50;48.30;;;;;;;5.54;76.17;101439.56;106516;1311;22123;-71
2022/11/27 22:41:24;;;;;;;69.90;50.30;;;;;;;5.53;76.02;101439.89;106565;1310;22178;-70
2022/11/27 22:43:51;;;;;;;71.80;49.70;;;;;;;5.51;76.12;101439.13;106561;1305;22856;-72
2022/11/27 22:46:34;;;;;;;69.10;49.60;;;;;;;5.49;75.85;101432.77;106886;1306;22153;-73
2022/11/27 22:49:04;;;;;;;69.60;47.70;;;;;;;5.47;75.81;101435.69;106852;1305;23099;-74
2022/11/27 22:51:37;;;;;;;62.40;46.80;;;;;;;5.49;75.87;101429.96;106844;1306;22050;-73
2022/11/27 22:54:06;;;;;;;68.40;47.90;;;;;;;5.54;76.10;101427.69;106806;1306;22191;-72
2022/11/27 22:56:33;;;;;;;67.00;49.10;;;;;;;5.57;75.71;101425.84;106888;1305;22821;-73
2022/11/27 22:59:01;;;;;;;67.40;48.10;;;;;;;5.56;75.66;101425.29;106732;1305;22104;-73
2022/11/27 23:01:47;;;;;;;64.10;47.20;;;;;;;5.45;75.08;101424.27;106875;1305;22251;-73
2022/11/27 23:04:15;;;;;;;60.70;44.60;;;;;;;5.31;75.49;101419.70;106912;1305;22107;-73
2022/11/27 23:06:46;;;;;;;57.20;43.40;;;;;;;5.27;75.66;101422.18;106909;1305;22106;-73
2022/11/27 23:09:16;;;;;;;52.50;40.00;;;;;;;5.24;75.85;101421.91;106817;1306;22073;-73
2022/11/27 23:11:44;;;;;;;56.60;41.50;;;;;;;5.24;75.73;101415.80;106606;1309;22109;-73
2022/11/27 23:14:10;;;;;;;58.70;42.20;;;;;;;5.20;75.63;101416.91;106611;1309;22157;-73
2022/11/27 23:16:37;;;;;;;61.40;42.60;;;;;;;5.19;75.64;101415.86;106611;1309;22112;-73
2022/11/27 23:19:04;;;;;;;60.20;44.30;;;;;;;5.13;75.61;101413.23;106636;1309;22257;-73
2022/11/27 23:21:34;;;;;;;56.70;43.30;;;;;;;5.11;75.63;101417.34;106587;1309;22203;-72
2022/11/27 23:24:00;;;;;;;66.80;43.30;;;;;;;5.12;75.93;101413.90;106608;1309;22292;-74
2022/11/27 23:26:27;;;;;;;62.40;45.00;;;;;;;5.16;75.95;101416.09;106538;1309;22343;-75
2022/11/27 23:28:55;;;;;;;59.60;44.00;;;;;;;5.19;75.87;101413.93;106528;1310;23029;-75
2022/11/27 23:31:25;;;;;;;59.20;42.90;;;;;;;5.18;75.62;101414.77;106895;1306;22103;-77
2022/11/27 23:34:00;;;;;;;58.20;44.50;;;;;;;5.17;75.53;101417.35;106852;1305;21793;-76
2022/11/27 23:36:29;;;;;;;61.60;42.50;;;;;;;5.15;75.60;101412.08;106851;1305;22063;-77
2022/11/27 23:38:58;;;;;;;60.60;44.80;;;;;;;5.15;75.46;101409.45;106857;1306;22074;-77
2022/11/27 23:41:25;;;;;;;59.90;42.90;;;;;;;5.13;75.53;101409.40;106914;1306;22810;-76
2022/11/27 23:43:54;;;;;;;60.10;43.60;;;;;;;5.14;75.61;101409.42;106838;1306;22046;-74
2022/11/27 23:46:25;;;;;;;60.80;43.90;;;;;;;5.14;75.59;101411.69;106830;1306;22084;-73
2022/11/27 23:48:56;;;;;;;66.50;45.00;;;;;;;5.14;75.71;101406.44;106875;1306;22111;-73
2022/11/27 23:51:26;;;;;;;60.10;44.30;;;;;;;5.17;75.74;101407.42;106690;1306;22904;-73
2022/11/27 23:53:53;;;;;;;61.10;44.10;;;;;;;5.18;75.75;101407.08;106871;1306;22101;-73
2022/11/27 23:56:24;;;;;;;67.10;44.40;;;;;;;5.18;75.71;101407.42;106959;1304;22703;-74
2022/11/27 23:58:53;;;;;;;57.50;43.00;;;;;;;5.19;75.66;101402.77;106849;1306;22889;-73
